Weather at Beaumont Municipal Airport

Public forecast

Using degrees Fahrenheit for public forecast. Weather courtesy of forecast.io.

Current aviation weather report (METAR) for Beaumont Municipal Airport

2024/07/20 15:35 (retrieved 17 minutes ago)

KBMT 201535Z AUTO 35003KT 10SM SCT011 28/24 A3003 RMK AO2 T02760235

Closest aviation forecast (TAF) to Beaumont Municipal Airport

Closest forecast is Jack Brooks Regional Airport, 12.4 nm (23.0 km) SE.

2024/07/20 12:22 (retrieved 4 hours ago)

TAF KBPT 201120Z 2012/2112 VRB03KT P6SM VCTS FEW010 SCT020CB BKN150 TEMPO 2012/2014 BKN010CB FM201800 14004KT P6SM VCSH SCT040 BKN250